createdAt,value
2022-10-28T00:01:33.048Z,66.05
2022-10-28T00:04:02.148Z,65.82
2022-10-28T00:06:33.327Z,66.20
2022-10-28T00:09:03.786Z,65.82
2022-10-28T00:11:35.018Z,66.55
2022-10-28T00:14:05.849Z,65.81
2022-10-28T00:16:36.137Z,66.09
2022-10-28T00:19:06.693Z,67.06
2022-10-28T00:21:36.452Z,67.82
2022-10-28T00:24:05.584Z,66.81
2022-10-28T00:26:34.064Z,66.47
2022-10-28T00:29:16.962Z,67.14
2022-10-28T00:31:45.733Z,67.07
2022-10-28T00:34:16.895Z,66.70
2022-10-28T00:36:46.676Z,67.10
2022-10-28T00:39:20.279Z,66.75
2022-10-28T00:41:53.648Z,66.26
2022-10-28T00:44:39.792Z,66.52
2022-10-28T00:47:40.962Z,66.75
2022-10-28T00:50:40.520Z,66.92
2022-10-28T00:53:15.514Z,67.08
2022-10-28T00:55:45.577Z,66.97
2022-10-28T00:58:15.168Z,67.26
2022-10-28T01:00:43.091Z,66.53
2022-10-28T01:03:11.322Z,66.73
2022-10-28T01:05:42.818Z,66.42
2022-10-28T01:08:11.259Z,66.57
2022-10-28T01:11:03.853Z,66.08
2022-10-28T01:14:04.913Z,66.60
2022-10-28T01:17:02.812Z,67.09
2022-10-28T01:20:11.616Z,66.36
2022-10-28T01:22:52.226Z,66.03
2022-10-28T01:25:54.462Z,66.62
2022-10-28T01:28:58.126Z,66.95
2022-10-28T01:32:05.860Z,66.97
2022-10-28T01:34:39.920Z,66.86
2022-10-28T01:37:19.369Z,67.01
2022-10-28T01:39:56.348Z,67.11
2022-10-28T01:42:45.421Z,67.13
2022-10-28T01:45:24.412Z,67.56
2022-10-28T01:47:59.428Z,66.67
2022-10-28T01:50:41.223Z,66.16
2022-10-28T01:53:17.104Z,66.74
2022-10-28T01:55:53.604Z,67.58
2022-10-28T01:58:27.845Z,66.44
2022-10-28T02:02:45.454Z,68.38
2022-10-28T02:05:44.302Z,67.96
2022-10-28T02:08:18.022Z,68.01
2022-10-28T02:11:29.934Z,67.68
2022-10-28T02:14:25.531Z,67.44
2022-10-28T02:17:12.515Z,66.58
2022-10-28T02:19:58.321Z,67.42
2022-10-28T02:22:44.773Z,67.70
2022-10-28T02:25:21.663Z,67.88
2022-10-28T02:27:59.449Z,67.26
2022-10-28T02:30:33.458Z,68.11
2022-10-28T02:33:05.527Z,68.10
2022-10-28T02:35:45.892Z,68.80
2022-10-28T02:38:26.083Z,68.61
2022-10-28T02:41:00.474Z,68.64
2022-10-28T02:43:32.866Z,68.54
2022-10-28T02:46:04.264Z,68.24
2022-10-28T02:48:38.704Z,67.80
2022-10-28T02:51:18.538Z,69.00
2022-10-28T02:53:58.444Z,69.56
2022-10-28T02:56:30.110Z,69.44
2022-10-28T02:58:58.234Z,70.25
2022-10-28T03:01:26.486Z,67.08
2022-10-28T03:03:54.755Z,67.33
2022-10-28T03:06:22.649Z,67.32
2022-10-28T03:08:50.682Z,68.12
2022-10-28T03:11:20.313Z,68.87
2022-10-28T03:13:48.324Z,70.12
2022-10-28T03:16:16.184Z,69.56
2022-10-28T03:18:44.292Z,69.88
2022-10-28T03:21:12.177Z,69.62
2022-10-28T03:23:40.224Z,69.41
2022-10-28T03:26:08.083Z,69.09
2022-10-28T03:28:36.350Z,68.48
2022-10-28T03:31:05.015Z,69.08
2022-10-28T03:33:33.097Z,70.05
2022-10-28T03:36:01.007Z,69.71
2022-10-28T03:38:29.261Z,69.19
2022-10-28T03:40:57.114Z,69.11
2022-10-28T03:43:25.158Z,70.16
2022-10-28T03:45:53.097Z,69.84
2022-10-28T03:48:21.116Z,69.97
2022-10-28T03:50:53.468Z,69.46
2022-10-28T03:53:26.268Z,69.97
2022-10-28T03:56:00.294Z,70.05
2022-10-28T03:58:29.060Z,70.00
2022-10-28T04:00:57.407Z,70.07
2022-10-28T04:03:25.962Z,69.67
2022-10-28T04:05:53.960Z,67.56
2022-10-28T04:08:22.275Z,67.78
2022-10-28T04:10:50.309Z,67.58
2022-10-28T04:13:18.753Z,68.74
2022-10-28T04:15:46.966Z,69.78
2022-10-28T04:18:14.949Z,68.96
2022-10-28T04:20:43.098Z,69.47
2022-10-28T04:23:15.580Z,69.70
2022-10-28T04:25:43.925Z,69.72
2022-10-28T04:28:11.849Z,69.39
2022-10-28T04:30:39.768Z,68.87
2022-10-28T04:33:07.785Z,68.84
2022-10-28T04:35:35.782Z,69.80
2022-10-28T04:38:03.708Z,69.76
2022-10-28T04:40:31.615Z,69.22
2022-10-28T04:42:59.594Z,68.82
2022-10-28T04:45:27.696Z,68.90
2022-10-28T04:48:00.099Z,68.71
2022-10-28T04:50:28.494Z,68.73
2022-10-28T04:52:56.539Z,68.43
2022-10-28T04:55:24.774Z,69.21
2022-10-28T04:58:00.507Z,69.11
2022-10-28T05:00:30.114Z,69.36
2022-10-28T05:03:01.723Z,68.84
2022-10-28T05:05:30.050Z,68.99
2022-10-28T05:07:57.995Z,69.36
2022-10-28T05:10:26.222Z,69.77
2022-10-28T05:12:54.376Z,70.78
2022-10-28T05:15:22.418Z,70.99
2022-10-28T05:17:50.883Z,70.62
2022-10-28T05:20:20.651Z,70.37
2022-10-28T05:22:50.790Z,70.18
2022-10-28T05:25:19.601Z,69.40
2022-10-28T05:27:47.969Z,69.30
2022-10-28T05:30:16.444Z,69.66
2022-10-28T05:32:44.796Z,69.50
2022-10-28T05:35:12.877Z,69.03
2022-10-28T05:37:40.769Z,69.16
2022-10-28T05:40:09.647Z,69.49
2022-10-28T05:42:43.643Z,69.88
2022-10-28T05:45:12.412Z,69.19
2022-10-28T05:47:44.734Z,69.20
2022-10-28T05:50:14.164Z,70.35
2022-10-28T05:52:49.869Z,69.50
2022-10-28T05:55:22.033Z,69.34
2022-10-28T05:57:52.047Z,68.51
2022-10-28T06:00:23.996Z,68.23
2022-10-28T06:02:52.433Z,69.09
2022-10-28T06:05:20.907Z,68.21
2022-10-28T06:07:49.077Z,68.51
2022-10-28T06:10:17.137Z,69.26
2022-10-28T06:12:43.479Z,69.35
2022-10-28T06:15:11.404Z,69.65
2022-10-28T06:17:39.521Z,69.00
2022-10-28T06:20:08.000Z,69.25
2022-10-28T06:22:35.919Z,68.86
2022-10-28T06:25:04.454Z,69.12
2022-10-28T06:27:32.395Z,68.77
2022-10-28T06:30:00.513Z,68.45
2022-10-28T06:32:28.835Z,68.12
2022-10-28T06:34:57.295Z,68.12
2022-10-28T06:37:25.247Z,68.37
2022-10-28T06:39:53.286Z,68.24
2022-10-28T06:42:21.476Z,67.40
2022-10-28T06:44:50.775Z,67.39
2022-10-28T06:47:20.648Z,67.33
2022-10-28T06:49:48.773Z,67.64
2022-10-28T06:52:16.766Z,68.71
2022-10-28T06:54:44.698Z,68.70
2022-10-28T06:57:12.719Z,68.21
2022-10-28T06:59:42.259Z,69.14
2022-10-28T07:02:12.299Z,70.00
2022-10-28T07:04:40.556Z,70.14
2022-10-28T07:07:09.123Z,70.42
2022-10-28T07:09:39.742Z,70.32
2022-10-28T07:12:08.255Z,70.45
2022-10-28T07:14:36.251Z,71.04
2022-10-28T07:17:04.354Z,70.59
2022-10-28T07:19:32.285Z,70.92
2022-10-28T07:22:00.220Z,71.10
2022-10-28T07:27:01.256Z,72.89
2022-10-28T07:29:29.316Z,73.09
2022-10-28T07:31:57.298Z,72.80
2022-10-28T07:34:27.182Z,72.51
2022-10-28T07:36:56.070Z,72.08
2022-10-28T07:39:24.675Z,69.98
2022-10-28T07:41:52.736Z,69.65
2022-10-28T07:44:20.823Z,68.74
2022-10-28T07:46:48.741Z,67.34
2022-10-28T07:49:17.908Z,66.47
2022-10-28T07:51:46.235Z,65.91
2022-10-28T07:54:14.120Z,65.14
2022-10-28T07:56:42.085Z,62.40
2022-10-28T07:59:11.043Z,59.13
2022-10-28T08:01:39.101Z,59.94
2022-10-28T08:04:07.237Z,60.23
2022-10-28T08:06:36.236Z,60.48
2022-10-28T08:09:03.978Z,59.48
2022-10-28T08:11:31.855Z,60.51
2022-10-28T08:13:59.852Z,59.62
2022-10-28T08:16:29.292Z,58.92
2022-10-28T08:18:57.524Z,56.97
2022-10-28T08:21:27.300Z,56.46
2022-10-28T08:23:55.497Z,54.36
2022-10-28T08:26:23.534Z,52.23
2022-10-28T08:28:51.519Z,52.19
2022-10-28T08:31:19.462Z,52.01
2022-10-28T08:33:47.683Z,51.14
2022-10-28T08:36:17.111Z,50.22
2022-10-28T08:38:46.839Z,50.10
2022-10-28T08:41:33.415Z,48.24
2022-10-28T08:44:22.422Z,45.67
2022-10-28T08:46:53.164Z,43.37
2022-10-28T08:49:24.201Z,41.99
2022-10-28T08:52:01.041Z,42.13
2022-10-28T08:54:36.226Z,41.36
2022-10-28T08:57:17.106Z,40.25
2022-10-28T08:59:49.169Z,38.37
2022-10-28T09:02:17.175Z,38.29
2022-10-28T09:04:46.564Z,38.90
2022-10-28T09:07:18.873Z,38.63
2022-10-28T09:09:49.281Z,38.80
2022-10-28T09:12:49.335Z,38.63
2022-10-28T09:15:37.477Z,38.27
2022-10-28T09:18:25.246Z,36.51
2022-10-28T09:20:58.233Z,34.52
2022-10-28T09:23:50.250Z,32.01
2022-10-28T09:26:28.590Z,31.19
2022-10-28T09:32:19.136Z,30.44
2022-10-28T09:35:06.607Z,30.28
2022-10-28T09:37:39.344Z,29.90
2022-10-28T09:40:23.680Z,29.33
2022-10-28T09:43:35.907Z,28.11
2022-10-28T09:46:13.123Z,27.62
2022-10-28T09:48:50.935Z,28.28
2022-10-28T09:51:31.446Z,29.39
2022-10-28T09:54:00.975Z,29.99
2022-10-28T09:56:30.666Z,29.17
2022-10-28T09:59:01.628Z,28.58
2022-10-28T10:01:35.544Z,28.23
2022-10-28T10:04:17.804Z,27.55
2022-10-28T10:06:49.620Z,26.38
2022-10-28T10:09:23.981Z,25.40
2022-10-28T10:11:54.193Z,25.21
2022-10-28T10:14:36.640Z,26.40
2022-10-28T10:17:10.509Z,27.10
2022-10-28T10:20:04.428Z,27.04
2022-10-28T10:22:38.737Z,25.86
2022-10-28T10:25:19.036Z,24.57
2022-10-28T10:28:15.829Z,24.82
2022-10-28T10:30:51.699Z,24.73
2022-10-28T10:33:20.944Z,25.05
2022-10-28T10:36:13.420Z,25.13
2022-10-28T10:38:58.817Z,24.26
2022-10-28T10:41:51.334Z,24.95
2022-10-28T10:44:22.223Z,24.83
2022-10-28T10:47:06.492Z,23.15
2022-10-28T10:49:36.007Z,23.14
2022-10-28T10:52:17.618Z,22.71
2022-10-28T10:55:05.975Z,23.89
2022-10-28T10:57:34.869Z,22.85
2022-10-28T11:00:04.267Z,22.96
2022-10-28T11:02:36.848Z,22.33
2022-10-28T11:05:08.761Z,23.08
2022-10-28T11:07:40.688Z,22.64
2022-10-28T11:10:24.469Z,22.48
2022-10-28T11:12:58.019Z,22.16
2022-10-28T11:15:30.022Z,22.48
2022-10-28T11:18:20.975Z,22.10
2022-10-28T11:21:05.709Z,21.47
2022-10-28T11:23:36.689Z,21.40
2022-10-28T11:26:10.730Z,21.96
2022-10-28T11:29:02.788Z,21.64
2022-10-28T11:31:33.590Z,22.49
2022-10-28T11:34:28.827Z,24.16
2022-10-28T11:37:24.635Z,25.75
2022-10-28T11:40:04.910Z,27.40
2022-10-28T11:43:03.409Z,28.47
2022-10-28T11:45:51.386Z,29.69
2022-10-28T11:48:28.194Z,29.77
2022-10-28T11:51:20.927Z,31.02
2022-10-28T11:54:08.407Z,31.22
2022-10-28T11:56:54.419Z,31.48
2022-10-28T11:59:46.712Z,31.55
2022-10-28T12:02:29.527Z,31.32
2022-10-28T12:05:09.384Z,31.54
2022-10-28T12:07:46.413Z,33.00
2022-10-28T12:10:32.713Z,33.25
2022-10-28T12:13:13.227Z,32.89
2022-10-28T12:16:06.755Z,33.40
2022-10-28T12:18:46.767Z,33.77
2022-10-28T12:21:32.085Z,34.45
2022-10-28T12:24:00.825Z,34.38
2022-10-28T12:26:45.260Z,34.17
2022-10-28T12:29:22.489Z,34.63
2022-10-28T12:31:56.948Z,34.56
2022-10-28T12:34:32.966Z,35.20
2022-10-28T12:37:08.975Z,34.96
2022-10-28T12:39:55.314Z,35.36
2022-10-28T12:42:34.431Z,35.79
2022-10-28T12:45:07.183Z,35.59
2022-10-28T12:48:12.442Z,35.05
2022-10-28T12:50:52.467Z,35.19
2022-10-28T12:53:47.335Z,35.72
2022-10-28T12:56:37.803Z,34.80
2022-10-28T12:59:17.490Z,36.31
2022-10-28T13:01:49.055Z,35.90
2022-10-28T13:04:17.759Z,34.39
2022-10-28T13:07:10.196Z,36.12
2022-10-28T13:09:56.161Z,36.63
2022-10-28T13:13:09.283Z,35.91
2022-10-28T13:15:52.127Z,35.34
2022-10-28T13:18:35.624Z,34.71
2022-10-28T13:21:31.456Z,35.18
2022-10-28T13:24:16.877Z,34.96
2022-10-28T13:26:46.884Z,34.94
2022-10-28T13:29:24.955Z,33.35
2022-10-28T13:31:55.005Z,34.19
2022-10-28T13:34:35.315Z,35.63
2022-10-28T13:37:06.399Z,35.40
2022-10-28T13:39:37.399Z,35.02
2022-10-28T13:42:19.693Z,35.95
2022-10-28T13:44:47.821Z,37.16
2022-10-28T13:47:15.695Z,37.14
2022-10-28T13:50:08.823Z,37.87
2022-10-28T13:52:39.339Z,39.08
2022-10-28T13:55:47.544Z,39.68
2022-10-28T13:58:23.104Z,41.00
2022-10-28T14:00:53.635Z,41.26
2022-10-28T14:03:26.205Z,42.05
2022-10-28T14:05:58.504Z,42.17
2022-10-28T14:08:34.642Z,42.33
2022-10-28T14:11:22.905Z,42.30
2022-10-28T14:13:55.420Z,42.87
2022-10-28T14:16:39.287Z,44.35
2022-10-28T14:19:22.012Z,45.14
2022-10-28T14:22:07.911Z,45.03
2022-10-28T14:24:39.330Z,44.49
2022-10-28T14:27:08.294Z,46.03
2022-10-28T14:29:48.563Z,45.96
2022-10-28T14:32:31.479Z,46.22
2022-10-28T14:35:40.504Z,46.86
2022-10-28T14:38:27.090Z,46.53
2022-10-28T14:41:34.815Z,46.25
2022-10-28T14:44:02.980Z,46.33
2022-10-28T14:46:55.777Z,47.04
2022-10-28T14:49:33.127Z,47.64
2022-10-28T14:52:13.677Z,48.56
2022-10-28T14:54:55.705Z,48.67
2022-10-28T14:57:33.925Z,48.76
2022-10-28T15:00:06.977Z,48.98
2022-10-28T15:02:38.740Z,49.49
2022-10-28T15:05:13.179Z,49.54
2022-10-28T15:07:44.741Z,49.50
2022-10-28T15:10:14.864Z,49.56
2022-10-28T15:12:51.592Z,49.70
2022-10-28T15:15:22.999Z,49.74
2022-10-28T15:17:52.218Z,49.93
2022-10-28T15:20:27.801Z,49.87
2022-10-28T15:23:23.666Z,50.12
2022-10-28T15:26:15.066Z,50.92
2022-10-28T15:28:43.775Z,51.34
2022-10-28T15:31:11.802Z,51.45
2022-10-28T15:33:42.692Z,51.38
2022-10-28T15:36:20.760Z,51.57
2022-10-28T15:39:05.210Z,51.49
2022-10-28T15:41:45.323Z,52.03
2022-10-28T15:44:33.866Z,51.52
2022-10-28T15:47:16.868Z,51.84
2022-10-28T15:50:01.596Z,52.55
2022-10-28T15:52:35.927Z,54.45
2022-10-28T15:55:19.085Z,55.11
2022-10-28T15:57:56.361Z,54.67
2022-10-28T16:00:32.742Z,53.60
2022-10-28T16:03:07.992Z,54.03
2022-10-28T16:05:36.522Z,54.80
2022-10-28T16:08:08.617Z,55.83
2022-10-28T16:10:45.116Z,55.16
2022-10-28T16:13:25.025Z,55.52
2022-10-28T16:16:01.202Z,54.69
2022-10-28T16:18:31.716Z,54.22
2022-10-28T16:21:01.568Z,55.54
2022-10-28T16:23:40.079Z,55.05
2022-10-28T16:26:12.720Z,54.54
2022-10-28T16:28:44.939Z,54.75
2022-10-28T16:31:16.905Z,55.83
2022-10-28T16:33:45.547Z,56.14
2022-10-28T16:36:14.031Z,55.28
2022-10-28T16:38:42.724Z,55.12
2022-10-28T16:41:15.823Z,55.29
2022-10-28T16:43:44.713Z,56.58
2022-10-28T16:46:13.628Z,56.69
2022-10-28T16:48:42.425Z,56.07
2022-10-28T16:51:18.338Z,55.87
2022-10-28T16:53:51.283Z,55.92
2022-10-28T16:56:19.874Z,55.75
2022-10-28T16:58:48.378Z,56.10
2022-10-28T17:01:21.692Z,56.48
2022-10-28T17:03:50.338Z,56.28
2022-10-28T17:06:18.832Z,56.71
2022-10-28T17:09:02.449Z,56.88
2022-10-28T17:11:32.574Z,56.39
2022-10-28T17:14:03.403Z,56.60
2022-10-28T17:16:31.997Z,56.80
2022-10-28T17:19:00.703Z,56.78
2022-10-28T17:21:29.151Z,56.77
2022-10-28T17:23:57.515Z,57.42
2022-10-28T17:26:26.670Z,57.17
2022-10-28T17:28:55.183Z,57.27
2022-10-28T17:31:25.300Z,58.71
2022-10-28T17:33:55.631Z,57.80
2022-10-28T17:36:24.681Z,58.59
2022-10-28T17:38:53.303Z,57.86
2022-10-28T17:41:22.015Z,57.82
2022-10-28T17:43:53.708Z,58.22
2022-10-28T17:46:22.887Z,58.35
2022-10-28T17:48:51.420Z,59.01
2022-10-28T17:51:21.364Z,60.41
2022-10-28T17:53:55.859Z,60.02
2022-10-28T17:56:24.596Z,60.07
2022-10-28T17:58:54.355Z,60.11
2022-10-28T18:01:23.384Z,59.64
2022-10-28T18:03:51.955Z,59.90
2022-10-28T18:06:20.488Z,59.33
2022-10-28T18:11:22.894Z,60.57
2022-10-28T18:13:53.181Z,60.86
2022-10-28T18:16:25.668Z,60.73
2022-10-28T18:18:55.891Z,61.21
2022-10-28T18:21:27.418Z,61.61
2022-10-28T18:24:04.172Z,61.31
2022-10-28T18:26:35.013Z,61.65
2022-10-28T18:29:05.985Z,61.72
2022-10-28T18:31:34.556Z,61.96
2022-10-28T18:34:04.027Z,62.24
2022-10-28T18:36:37.181Z,62.18
2022-10-28T18:39:08.609Z,61.98
2022-10-28T18:41:42.089Z,62.16
2022-10-28T18:44:17.374Z,61.60
2022-10-28T18:46:46.365Z,61.68
2022-10-28T18:49:14.784Z,62.35
2022-10-28T18:51:43.469Z,62.04
2022-10-28T18:54:12.004Z,61.91
2022-10-28T18:56:44.782Z,62.38
2022-10-28T18:59:16.406Z,61.99
2022-10-28T19:01:47.260Z,62.11
2022-10-28T19:04:15.963Z,61.76
2022-10-28T19:06:44.532Z,62.09
2022-10-28T19:09:13.845Z,62.08
2022-10-28T19:11:42.288Z,62.04
2022-10-28T19:14:11.098Z,61.99
2022-10-28T19:16:40.501Z,61.99
2022-10-28T19:19:08.912Z,62.13
2022-10-28T19:21:37.755Z,63.37
2022-10-28T19:24:06.309Z,63.28
2022-10-28T19:26:35.243Z,63.41
2022-10-28T19:29:05.283Z,63.15
2022-10-28T19:31:37.411Z,63.20
2022-10-28T19:34:06.589Z,63.22
2022-10-28T19:36:35.132Z,63.25
2022-10-28T19:39:04.208Z,63.98
2022-10-28T19:41:32.790Z,63.64
2022-10-28T19:44:03.178Z,64.18
2022-10-28T19:46:36.168Z,63.64
2022-10-28T19:49:06.872Z,64.35
2022-10-28T19:51:39.059Z,63.52
2022-10-28T19:54:16.143Z,63.63
2022-10-28T19:56:45.486Z,63.50
2022-10-28T19:59:13.780Z,63.54
2022-10-28T20:01:42.424Z,63.36
2022-10-28T20:04:11.184Z,63.19
2022-10-28T20:06:41.054Z,62.62
2022-10-28T20:09:09.979Z,62.81
2022-10-28T20:11:39.940Z,63.49
2022-10-28T20:14:12.159Z,63.96
2022-10-28T20:16:43.208Z,63.43
2022-10-28T20:19:12.795Z,63.73
2022-10-28T20:21:41.232Z,63.48
2022-10-28T20:24:09.912Z,63.70
2022-10-28T20:26:39.419Z,64.00
2022-10-28T20:29:10.190Z,64.90
2022-10-28T20:31:41.193Z,64.28
2022-10-28T20:34:09.696Z,64.07
2022-10-28T20:36:40.696Z,64.13
2022-10-28T20:39:17.850Z,64.64
2022-10-28T20:41:47.959Z,64.53
2022-10-28T20:44:16.727Z,65.48
2022-10-28T20:46:46.716Z,64.70
2022-10-28T20:49:14.975Z,65.29
2022-10-28T20:51:43.101Z,65.31
2022-10-28T20:54:11.624Z,65.20
2022-10-28T20:56:41.906Z,65.17
2022-10-28T20:59:09.953Z,64.87
2022-10-28T21:01:40.508Z,65.82
2022-10-28T21:04:11.236Z,65.84
2022-10-28T21:06:39.965Z,65.68
2022-10-28T21:09:09.146Z,65.61
2022-10-28T21:11:37.450Z,65.04
2022-10-28T21:14:05.381Z,65.50
2022-10-28T21:16:33.440Z,65.39
2022-10-28T21:19:01.594Z,64.49
2022-10-28T21:21:30.396Z,65.50
2022-10-28T21:23:58.574Z,65.42
2022-10-28T21:26:27.420Z,65.92
2022-10-28T21:28:56.666Z,65.29
2022-10-28T21:31:25.200Z,65.40
2022-10-28T21:33:53.783Z,65.02
2022-10-28T21:36:22.676Z,64.85
2022-10-28T21:38:55.887Z,64.72
2022-10-28T21:41:24.915Z,64.95
2022-10-28T21:43:53.474Z,65.18
2022-10-28T21:46:22.706Z,64.88
2022-10-28T21:48:52.987Z,65.44
2022-10-28T21:51:20.967Z,66.50
2022-10-28T21:53:48.877Z,66.09
2022-10-28T21:56:19.752Z,66.18
2022-10-28T21:58:50.194Z,65.86
2022-10-28T22:01:24.093Z,66.07
2022-10-28T22:03:55.346Z,66.23
2022-10-28T22:06:24.604Z,66.19
2022-10-28T22:08:53.864Z,66.40
2022-10-28T22:11:23.671Z,66.21
2022-10-28T22:14:00.016Z,66.27
2022-10-28T22:16:30.027Z,65.47
2022-10-28T22:18:59.972Z,66.51
2022-10-28T22:21:31.929Z,65.79
2022-10-28T22:24:00.379Z,66.54
2022-10-28T22:26:30.563Z,66.44
2022-10-28T22:28:58.616Z,65.84
2022-10-28T22:31:31.157Z,65.84
2022-10-28T22:34:00.315Z,67.79
2022-10-28T22:36:29.788Z,68.49
2022-10-28T22:38:58.480Z,68.62
2022-10-28T22:41:31.916Z,68.95
2022-10-28T22:44:01.800Z,67.43
2022-10-28T22:46:33.944Z,68.08
2022-10-28T22:49:02.733Z,67.90
2022-10-28T22:51:30.628Z,67.82
2022-10-28T22:53:58.861Z,68.01
2022-10-28T22:56:27.885Z,68.20
2022-10-28T22:58:56.703Z,67.54
2022-10-28T23:01:26.494Z,66.64
2022-10-28T23:03:55.138Z,65.95
2022-10-28T23:06:25.451Z,66.63
2022-10-28T23:08:53.674Z,67.10
2022-10-28T23:11:22.637Z,66.27
2022-10-28T23:13:53.010Z,66.36
2022-10-28T23:16:22.510Z,66.03
2022-10-28T23:18:52.923Z,65.68
2022-10-28T23:21:23.748Z,66.49
2022-10-28T23:23:57.000Z,66.30
2022-10-28T23:26:26.401Z,66.39
2022-10-28T23:28:57.128Z,66.74
2022-10-28T23:31:25.885Z,66.02
2022-10-28T23:33:55.147Z,65.67
2022-10-28T23:36:23.042Z,66.79
2022-10-28T23:38:51.110Z,66.80
2022-10-28T23:41:21.141Z,66.79
2022-10-28T23:43:49.735Z,67.42
2022-10-28T23:46:18.717Z,67.24
2022-10-28T23:48:46.637Z,67.40
2022-10-28T23:51:14.777Z,66.48
2022-10-28T23:53:42.597Z,66.19
2022-10-28T23:56:10.528Z,66.52
2022-10-28T23:58:38.396Z,67.12
